sensor_id;sensor_type;location;lat;lon;timestamp;temperature;humidity
3548;DHT22;1788;49.400;11.092;2023-08-31T00:00:53;17.00;70.30
3548;DHT22;1788;49.400;11.092;2023-08-31T00:03:20;17.00;70.30
3548;DHT22;1788;49.400;11.092;2023-08-31T00:05:46;17.00;70.40
3548;DHT22;1788;49.400;11.092;2023-08-31T00:08:13;17.00;70.40
3548;DHT22;1788;49.400;11.092;2023-08-31T00:10:40;16.90;70.30
3548;DHT22;1788;49.400;11.092;2023-08-31T00:13:06;16.90;70.40
3548;DHT22;1788;49.400;11.092;2023-08-31T00:15:33;16.80;70.50
3548;DHT22;1788;49.400;11.092;2023-08-31T00:17:59;16.70;70.70
3548;DHT22;1788;49.400;11.092;2023-08-31T00:20:26;16.70;70.90
3548;DHT22;1788;49.400;11.092;2023-08-31T00:22:53;16.70;71.10
3548;DHT22;1788;49.400;11.092;2023-08-31T00:25:19;16.60;71.10
3548;DHT22;1788;49.400;11.092;2023-08-31T00:27:47;16.60;71.20
3548;DHT22;1788;49.400;11.092;2023-08-31T00:30:14;16.60;71.20
3548;DHT22;1788;49.400;11.092;2023-08-31T00:32:41;16.70;71.40
3548;DHT22;1788;49.400;11.092;2023-08-31T00:35:08;16.60;71.30
3548;DHT22;1788;49.400;11.092;2023-08-31T00:37:35;16.70;71.40
3548;DHT22;1788;49.400;11.092;2023-08-31T00:40:01;16.70;71.30
3548;DHT22;1788;49.400;11.092;2023-08-31T00:42:28;16.70;71.30
3548;DHT22;1788;49.400;11.092;2023-08-31T00:44:55;16.70;71.30
3548;DHT22;1788;49.400;11.092;2023-08-31T00:47:21;16.70;71.30
3548;DHT22;1788;49.400;11.092;2023-08-31T00:49:48;16.70;71.20
3548;DHT22;1788;49.400;11.092;2023-08-31T00:52:15;16.70;71.40
3548;DHT22;1788;49.400;11.092;2023-08-31T00:54:42;16.70;71.40
3548;DHT22;1788;49.400;11.092;2023-08-31T00:57:09;16.60;71.60
3548;DHT22;1788;49.400;11.092;2023-08-31T00:59:36;16.50;71.40
3548;DHT22;1788;49.400;11.092;2023-08-31T01:02:06;16.50;72.00
3548;DHT22;1788;49.400;11.092;2023-08-31T01:11:56;16.50;72.50
3548;DHT22;1788;49.400;11.092;2023-08-31T01:14:19;16.50;72.20
3548;DHT22;1788;49.400;11.092;2023-08-31T01:16:45;16.50;72.20
3548;DHT22;1788;49.400;11.092;2023-08-31T01:21:38;16.50;72.20
3548;DHT22;1788;49.400;11.092;2023-08-31T01:24:04;16.60;72.30
3548;DHT22;1788;49.400;11.092;2023-08-31T01:26:31;16.60;72.30
3548;DHT22;1788;49.400;11.092;2023-08-31T01:28:57;16.50;72.20
3548;DHT22;1788;49.400;11.092;2023-08-31T01:31:24;16.50;72.40
3548;DHT22;1788;49.400;11.092;2023-08-31T01:33:51;16.50;72.50
3548;DHT22;1788;49.400;11.092;2023-08-31T01:38:45;16.50;72.60
3548;DHT22;1788;49.400;11.092;2023-08-31T01:41:12;16.60;72.70
3548;DHT22;1788;49.400;11.092;2023-08-31T01:43:39;16.60;72.60
3548;DHT22;1788;49.400;11.092;2023-08-31T01:46:05;16.60;72.60
3548;DHT22;1788;49.400;11.092;2023-08-31T01:48:37;16.60;72.60
3548;DHT22;1788;49.400;11.092;2023-08-31T01:50:58;16.60;72.70
3548;DHT22;1788;49.400;11.092;2023-08-31T01:53:25;16.60;72.80
3548;DHT22;1788;49.400;11.092;2023-08-31T01:55:52;16.60;72.90
3548;DHT22;1788;49.400;11.092;2023-08-31T01:58:18;16.50;72.80
3548;DHT22;1788;49.400;11.092;2023-08-31T02:00:45;16.50;72.90
3548;DHT22;1788;49.400;11.092;2023-08-31T02:03:12;16.40;73.10
3548;DHT22;1788;49.400;11.092;2023-08-31T02:05:39;16.40;73.10
3548;DHT22;1788;49.400;11.092;2023-08-31T02:08:06;16.30;73.20
3548;DHT22;1788;49.400;11.092;2023-08-31T02:10:33;16.30;74.00
3548;DHT22;1788;49.400;11.092;2023-08-31T02:13:00;16.20;73.20
3548;DHT22;1788;49.400;11.092;2023-08-31T02:15:27;16.30;73.40
3548;DHT22;1788;49.400;11.092;2023-08-31T02:17:54;16.20;73.70
3548;DHT22;1788;49.400;11.092;2023-08-31T02:20:21;16.20;73.50
3548;DHT22;1788;49.400;11.092;2023-08-31T02:22:48;16.30;73.70
3548;DHT22;1788;49.400;11.092;2023-08-31T02:25:15;16.30;73.70
3548;DHT22;1788;49.400;11.092;2023-08-31T02:27:42;16.30;73.50
3548;DHT22;1788;49.400;11.092;2023-08-31T02:30:09;16.30;73.50
3548;DHT22;1788;49.400;11.092;2023-08-31T02:32:35;16.30;73.40
3548;DHT22;1788;49.400;11.092;2023-08-31T02:35:02;16.30;73.40
3548;DHT22;1788;49.400;11.092;2023-08-31T02:37:29;16.30;74.30
3548;DHT22;1788;49.400;11.092;2023-08-31T02:39:55;16.40;73.60
3548;DHT22;1788;49.400;11.092;2023-08-31T02:42:22;16.30;73.50
3548;DHT22;1788;49.400;11.092;2023-08-31T02:44:51;16.40;73.70
3548;DHT22;1788;49.400;11.092;2023-08-31T02:47:15;16.30;73.50
3548;DHT22;1788;49.400;11.092;2023-08-31T02:49:42;16.40;73.50
3548;DHT22;1788;49.400;11.092;2023-08-31T02:52:08;16.40;73.50
3548;DHT22;1788;49.400;11.092;2023-08-31T02:54:35;16.40;73.50
3548;DHT22;1788;49.400;11.092;2023-08-31T02:57:02;16.50;73.50
3548;DHT22;1788;49.400;11.092;2023-08-31T02:59:29;16.50;73.30
3548;DHT22;1788;49.400;11.092;2023-08-31T03:01:56;16.50;73.20
3548;DHT22;1788;49.400;11.092;2023-08-31T03:04:22;16.50;73.10
3548;DHT22;1788;49.400;11.092;2023-08-31T03:06:49;16.60;73.10
3548;DHT22;1788;49.400;11.092;2023-08-31T03:09:16;16.60;73.00
3548;DHT22;1788;49.400;11.092;2023-08-31T03:11:42;16.60;73.10
3548;DHT22;1788;49.400;11.092;2023-08-31T03:14:09;16.60;73.00
3548;DHT22;1788;49.400;11.092;2023-08-31T03:16:35;16.60;73.00
3548;DHT22;1788;49.400;11.092;2023-08-31T03:19:03;16.60;72.80
3548;DHT22;1788;49.400;11.092;2023-08-31T03:21:29;16.60;72.80
3548;DHT22;1788;49.400;11.092;2023-08-31T03:23:57;16.60;73.30
3548;DHT22;1788;49.400;11.092;2023-08-31T03:26:23;16.60;72.50
3548;DHT22;1788;49.400;11.092;2023-08-31T03:28:50;16.60;72.50
3548;DHT22;1788;49.400;11.092;2023-08-31T03:31:17;16.50;72.30
3548;DHT22;1788;49.400;11.092;2023-08-31T03:33:43;16.50;72.40
3548;DHT22;1788;49.400;11.092;2023-08-31T03:36:10;16.50;72.40
3548;DHT22;1788;49.400;11.092;2023-08-31T03:38:36;16.40;72.40
3548;DHT22;1788;49.400;11.092;2023-08-31T03:41:03;16.40;72.40
3548;DHT22;1788;49.400;11.092;2023-08-31T03:43:30;16.40;72.30
3548;DHT22;1788;49.400;11.092;2023-08-31T03:45:56;16.30;72.30
3548;DHT22;1788;49.400;11.092;2023-08-31T03:48:23;16.30;72.40
3548;DHT22;1788;49.400;11.092;2023-08-31T03:50:50;16.20;72.30
3548;DHT22;1788;49.400;11.092;2023-08-31T03:53:16;16.20;72.30
3548;DHT22;1788;49.400;11.092;2023-08-31T03:55:43;16.20;72.40
3548;DHT22;1788;49.400;11.092;2023-08-31T03:58:09;16.10;72.20
3548;DHT22;1788;49.400;11.092;2023-08-31T04:00:36;16.10;72.20
3548;DHT22;1788;49.400;11.092;2023-08-31T04:03:03;16.10;72.20
3548;DHT22;1788;49.400;11.092;2023-08-31T04:05:32;16.10;72.00
3548;DHT22;1788;49.400;11.092;2023-08-31T04:07:57;16.10;72.00
3548;DHT22;1788;49.400;11.092;2023-08-31T04:10:24;16.00;71.90
3548;DHT22;1788;49.400;11.092;2023-08-31T04:12:51;16.00;71.90
3548;DHT22;1788;49.400;11.092;2023-08-31T04:15:18;15.90;72.00
3548;DHT22;1788;49.400;11.092;2023-08-31T04:17:45;15.90;71.90
3548;DHT22;1788;49.400;11.092;2023-08-31T04:20:11;15.90;72.00
3548;DHT22;1788;49.400;11.092;2023-08-31T04:22:38;15.80;72.00
3548;DHT22;1788;49.400;11.092;2023-08-31T04:25:04;15.80;72.10
3548;DHT22;1788;49.400;11.092;2023-08-31T04:27:31;15.80;72.10
3548;DHT22;1788;49.400;11.092;2023-08-31T04:32:24;15.70;72.00
3548;DHT22;1788;49.400;11.092;2023-08-31T04:34:51;15.60;72.10
3548;DHT22;1788;49.400;11.092;2023-08-31T04:37:18;15.50;72.20
3548;DHT22;1788;49.400;11.092;2023-08-31T04:39:45;15.50;72.10
3548;DHT22;1788;49.400;11.092;2023-08-31T04:42:12;15.40;72.20
3548;DHT22;1788;49.400;11.092;2023-08-31T04:44:40;15.40;72.30
3548;DHT22;1788;49.400;11.092;2023-08-31T04:47:07;15.30;72.20
3548;DHT22;1788;49.400;11.092;2023-08-31T04:49:34;15.20;72.30
3548;DHT22;1788;49.400;11.092;2023-08-31T04:52:01;15.20;72.30
3548;DHT22;1788;49.400;11.092;2023-08-31T04:54:27;15.10;72.30
3548;DHT22;1788;49.400;11.092;2023-08-31T04:56:54;15.10;72.50
3548;DHT22;1788;49.400;11.092;2023-08-31T04:59:21;15.10;72.60
3548;DHT22;1788;49.400;11.092;2023-08-31T05:01:48;15.10;72.70
3548;DHT22;1788;49.400;11.092;2023-08-31T05:04:15;15.00;72.50
3548;DHT22;1788;49.400;11.092;2023-08-31T05:06:43;15.10;72.60
3548;DHT22;1788;49.400;11.092;2023-08-31T05:09:09;15.10;72.60
3548;DHT22;1788;49.400;11.092;2023-08-31T05:11:37;15.20;72.50
3548;DHT22;1788;49.400;11.092;2023-08-31T05:14:03;15.20;72.50
3548;DHT22;1788;49.400;11.092;2023-08-31T05:16:31;15.30;72.40
3548;DHT22;1788;49.400;11.092;2023-08-31T05:18:57;15.30;72.40
3548;DHT22;1788;49.400;11.092;2023-08-31T05:21:24;15.40;72.30
3548;DHT22;1788;49.400;11.092;2023-08-31T05:23:51;15.40;72.20
3548;DHT22;1788;49.400;11.092;2023-08-31T05:26:17;15.50;72.20
3548;DHT22;1788;49.400;11.092;2023-08-31T05:28:44;15.50;72.10
3548;DHT22;1788;49.400;11.092;2023-08-31T05:31:11;15.50;72.00
3548;DHT22;1788;49.400;11.092;2023-08-31T05:33:37;15.60;72.10
3548;DHT22;1788;49.400;11.092;2023-08-31T05:36:04;15.60;72.00
3548;DHT22;1788;49.400;11.092;2023-08-31T05:38:31;15.70;72.10
3548;DHT22;1788;49.400;11.092;2023-08-31T05:43:25;15.70;72.20
3548;DHT22;1788;49.400;11.092;2023-08-31T05:45:52;15.70;72.10
3548;DHT22;1788;49.400;11.092;2023-08-31T05:48:18;15.80;72.10
3548;DHT22;1788;49.400;11.092;2023-08-31T05:50:45;15.80;71.50
3548;DHT22;1788;49.400;11.092;2023-08-31T05:53:12;15.80;72.20
3548;DHT22;1788;49.400;11.092;2023-08-31T05:55:39;15.90;72.40
3548;DHT22;1788;49.400;11.092;2023-08-31T05:58:06;15.90;72.40
3548;DHT22;1788;49.400;11.092;2023-08-31T06:00:33;16.00;72.50
3548;DHT22;1788;49.400;11.092;2023-08-31T06:03:00;16.00;72.50
3548;DHT22;1788;49.400;11.092;2023-08-31T06:05:27;16.00;72.40
3548;DHT22;1788;49.400;11.092;2023-08-31T06:07:54;16.00;72.40
3548;DHT22;1788;49.400;11.092;2023-08-31T06:10:20;16.10;72.50
3548;DHT22;1788;49.400;11.092;2023-08-31T06:12:47;16.10;72.40
3548;DHT22;1788;49.400;11.092;2023-08-31T06:15:13;16.20;72.50
3548;DHT22;1788;49.400;11.092;2023-08-31T06:17:40;16.20;72.50
3548;DHT22;1788;49.400;11.092;2023-08-31T06:20:07;16.20;72.50
3548;DHT22;1788;49.400;11.092;2023-08-31T06:22:34;16.20;72.50
3548;DHT22;1788;49.400;11.092;2023-08-31T06:25:00;16.20;72.50
3548;DHT22;1788;49.400;11.092;2023-08-31T06:27:27;16.30;72.90
3548;DHT22;1788;49.400;11.092;2023-08-31T06:29:54;16.20;72.70
3548;DHT22;1788;49.400;11.092;2023-08-31T06:32:21;16.30;72.70
3548;DHT22;1788;49.400;11.092;2023-08-31T06:34:48;16.30;72.90
3548;DHT22;1788;49.400;11.092;2023-08-31T06:37:15;16.30;72.80
3548;DHT22;1788;49.400;11.092;2023-08-31T06:39:41;16.40;73.00
3548;DHT22;1788;49.400;11.092;2023-08-31T06:42:08;16.40;73.00
3548;DHT22;1788;49.400;11.092;2023-08-31T06:44:35;16.50;73.00
3548;DHT22;1788;49.400;11.092;2023-08-31T06:47:02;16.40;72.90
3548;DHT22;1788;49.400;11.092;2023-08-31T06:49:29;16.50;73.10
3548;DHT22;1788;49.400;11.092;2023-08-31T06:51:56;16.50;73.10
3548;DHT22;1788;49.400;11.092;2023-08-31T06:54:22;16.60;73.20
3548;DHT22;1788;49.400;11.092;2023-08-31T06:56:49;16.60;73.20
3548;DHT22;1788;49.400;11.092;2023-08-31T06:59:16;16.60;73.10
3548;DHT22;1788;49.400;11.092;2023-08-31T07:01:42;16.70;73.20
3548;DHT22;1788;49.400;11.092;2023-08-31T07:04:09;16.70;73.20
3548;DHT22;1788;49.400;11.092;2023-08-31T07:06:35;16.80;73.30
3548;DHT22;1788;49.400;11.092;2023-08-31T07:09:03;16.80;73.20
3548;DHT22;1788;49.400;11.092;2023-08-31T07:11:29;16.80;72.90
3548;DHT22;1788;49.400;11.092;2023-08-31T07:13:56;16.80;72.80
3548;DHT22;1788;49.400;11.092;2023-08-31T07:16:23;16.80;72.80
3548;DHT22;1788;49.400;11.092;2023-08-31T07:18:49;16.80;72.80
3548;DHT22;1788;49.400;11.092;2023-08-31T07:21:16;16.90;72.90
3548;DHT22;1788;49.400;11.092;2023-08-31T07:23:43;16.90;73.00
3548;DHT22;1788;49.400;11.092;2023-08-31T07:26:10;17.00;73.20
3548;DHT22;1788;49.400;11.092;2023-08-31T07:28:38;17.00;72.70
3548;DHT22;1788;49.400;11.092;2023-08-31T07:31:06;17.10;73.50
3548;DHT22;1788;49.400;11.092;2023-08-31T07:33:33;17.10;72.70
3548;DHT22;1788;49.400;11.092;2023-08-31T07:36:00;17.20;72.60
3548;DHT22;1788;49.400;11.092;2023-08-31T07:38:27;17.20;72.60
3548;DHT22;1788;49.400;11.092;2023-08-31T07:40:53;17.20;72.40
3548;DHT22;1788;49.400;11.092;2023-08-31T07:43:21;17.40;72.60
3548;DHT22;1788;49.400;11.092;2023-08-31T07:45:48;17.40;72.20
3548;DHT22;1788;49.400;11.092;2023-08-31T07:48:14;17.50;71.90
3548;DHT22;1788;49.400;11.092;2023-08-31T07:50:41;17.60;71.80
3548;DHT22;1788;49.400;11.092;2023-08-31T07:53:08;17.70;71.70
3548;DHT22;1788;49.400;11.092;2023-08-31T07:55:34;17.80;71.50
3548;DHT22;1788;49.400;11.092;2023-08-31T07:58:01;17.90;71.20
3548;DHT22;1788;49.400;11.092;2023-08-31T08:00:27;17.90;70.90
3548;DHT22;1788;49.400;11.092;2023-08-31T08:02:55;17.90;70.80
3548;DHT22;1788;49.400;11.092;2023-08-31T08:05:22;17.90;70.80
3548;DHT22;1788;49.400;11.092;2023-08-31T08:07:49;17.90;70.20
3548;DHT22;1788;49.400;11.092;2023-08-31T08:10:16;17.80;70.00
3548;DHT22;1788;49.400;11.092;2023-08-31T08:12:43;18.00;70.10
3548;DHT22;1788;49.400;11.092;2023-08-31T08:15:10;17.90;70.00
3548;DHT22;1788;49.400;11.092;2023-08-31T08:17:36;18.00;69.70
3548;DHT22;1788;49.400;11.092;2023-08-31T08:20:03;18.10;69.60
3548;DHT22;1788;49.400;11.092;2023-08-31T08:22:30;18.20;69.10
3548;DHT22;1788;49.400;11.092;2023-08-31T08:24:56;18.20;68.60
3548;DHT22;1788;49.400;11.092;2023-08-31T08:27:23;18.20;68.10
3548;DHT22;1788;49.400;11.092;2023-08-31T08:29:49;18.20;67.70
3548;DHT22;1788;49.400;11.092;2023-08-31T08:32:16;18.10;67.40
3548;DHT22;1788;49.400;11.092;2023-08-31T08:34:43;18.20;67.40
3548;DHT22;1788;49.400;11.092;2023-08-31T08:37:10;18.20;67.30
3548;DHT22;1788;49.400;11.092;2023-08-31T08:39:37;18.30;67.00
3548;DHT22;1788;49.400;11.092;2023-08-31T08:42:04;18.30;66.50
3548;DHT22;1788;49.400;11.092;2023-08-31T08:44:31;18.40;66.50
3548;DHT22;1788;49.400;11.092;2023-08-31T08:46:59;18.50;65.60
3548;DHT22;1788;49.400;11.092;2023-08-31T08:49:26;18.50;65.50
3548;DHT22;1788;49.400;11.092;2023-08-31T08:51:52;18.40;65.20
3548;DHT22;1788;49.400;11.092;2023-08-31T08:54:19;18.40;64.90
3548;DHT22;1788;49.400;11.092;2023-08-31T08:56:45;18.40;64.50
3548;DHT22;1788;49.400;11.092;2023-08-31T08:59:12;18.40;64.00
3548;DHT22;1788;49.400;11.092;2023-08-31T09:01:39;18.40;63.30
3548;DHT22;1788;49.400;11.092;2023-08-31T09:04:06;18.30;63.20
3548;DHT22;1788;49.400;11.092;2023-08-31T09:06:33;18.40;63.00
3548;DHT22;1788;49.400;11.092;2023-08-31T09:08:59;18.50;62.50
3548;DHT22;1788;49.400;11.092;2023-08-31T09:11:29;18.60;62.00
3548;DHT22;1788;49.400;11.092;2023-08-31T09:13:56;18.60;61.60
3548;DHT22;1788;49.400;11.092;2023-08-31T09:16:24;18.70;61.50
3548;DHT22;1788;49.400;11.092;2023-08-31T09:18:50;18.90;61.50
3548;DHT22;1788;49.400;11.092;2023-08-31T09:21:17;19.10;61.10
3548;DHT22;1788;49.400;11.092;2023-08-31T09:23:45;19.30;60.50
3548;DHT22;1788;49.400;11.092;2023-08-31T09:26:11;19.50;59.60
3548;DHT22;1788;49.400;11.092;2023-08-31T09:28:40;19.50;59.60
3548;DHT22;1788;49.400;11.092;2023-08-31T09:31:05;19.60;59.30
3548;DHT22;1788;49.400;11.092;2023-08-31T09:33:31;19.70;58.70
3548;DHT22;1788;49.400;11.092;2023-08-31T09:35:59;19.80;57.70
3548;DHT22;1788;49.400;11.092;2023-08-31T09:38:25;19.80;57.70
3548;DHT22;1788;49.400;11.092;2023-08-31T09:41:03;19.90;57.40
3548;DHT22;1788;49.400;11.092;2023-08-31T09:43:20;19.90;57.40
3548;DHT22;1788;49.400;11.092;2023-08-31T09:45:46;19.90;57.10
3548;DHT22;1788;49.400;11.092;2023-08-31T09:48:13;20.00;57.00
3548;DHT22;1788;49.400;11.092;2023-08-31T09:50:39;20.00;56.90
3548;DHT22;1788;49.400;11.092;2023-08-31T09:53:06;19.90;56.70
3548;DHT22;1788;49.400;11.092;2023-08-31T09:55:32;19.80;56.50
3548;DHT22;1788;49.400;11.092;2023-08-31T09:58:00;19.70;56.50
3548;DHT22;1788;49.400;11.092;2023-08-31T10:00:26;19.60;56.50
3548;DHT22;1788;49.400;11.092;2023-08-31T10:05:19;19.30;56.30
3548;DHT22;1788;49.400;11.092;2023-08-31T10:07:45;19.20;56.30
3548;DHT22;1788;49.400;11.092;2023-08-31T10:10:12;19.10;56.30
3548;DHT22;1788;49.400;11.092;2023-08-31T10:12:39;19.00;56.20
3548;DHT22;1788;49.400;11.092;2023-08-31T10:15:05;18.90;56.00
3548;DHT22;1788;49.400;11.092;2023-08-31T10:17:32;18.90;55.90
3548;DHT22;1788;49.400;11.092;2023-08-31T10:19:59;18.90;55.80
3548;DHT22;1788;49.400;11.092;2023-08-31T10:22:26;18.80;55.70
3548;DHT22;1788;49.400;11.092;2023-08-31T10:27:19;19.10;55.60
3548;DHT22;1788;49.400;11.092;2023-08-31T10:29:46;19.30;55.30
3548;DHT22;1788;49.400;11.092;2023-08-31T10:32:16;19.50;55.00
3548;DHT22;1788;49.400;11.092;2023-08-31T10:34:39;19.60;54.60
3548;DHT22;1788;49.400;11.092;2023-08-31T10:37:19;19.70;54.50
3548;DHT22;1788;49.400;11.092;2023-08-31T10:42:00;20.30;53.40
3548;DHT22;1788;49.400;11.092;2023-08-31T10:44:27;20.30;53.40
3548;DHT22;1788;49.400;11.092;2023-08-31T10:46:54;20.50;52.40
3548;DHT22;1788;49.400;11.092;2023-08-31T10:49:21;20.50;52.00
3548;DHT22;1788;49.400;11.092;2023-08-31T10:59:07;20.30;51.10
3548;DHT22;1788;49.400;11.092;2023-08-31T11:04:06;19.80;51.30
3548;DHT22;1788;49.400;11.092;2023-08-31T11:06:28;19.80;51.30
3548;DHT22;1788;49.400;11.092;2023-08-31T11:08:55;19.70;51.30
3548;DHT22;1788;49.400;11.092;2023-08-31T11:11:22;19.70;52.10
3548;DHT22;1788;49.400;11.092;2023-08-31T11:13:48;19.60;51.60
3548;DHT22;1788;49.400;11.092;2023-08-31T11:16:14;19.60;51.70
3548;DHT22;1788;49.400;11.092;2023-08-31T11:18:41;19.60;51.50
3548;DHT22;1788;49.400;11.092;2023-08-31T11:21:08;19.60;51.30
3548;DHT22;1788;49.400;11.092;2023-08-31T11:23:35;19.60;51.20
3548;DHT22;1788;49.400;11.092;2023-08-31T11:26:02;19.70;51.50
3548;DHT22;1788;49.400;11.092;2023-08-31T11:28:32;19.60;51.10
3548;DHT22;1788;49.400;11.092;2023-08-31T11:30:55;19.70;51.10
3548;DHT22;1788;49.400;11.092;2023-08-31T11:33:21;19.80;51.20
3548;DHT22;1788;49.400;11.092;2023-08-31T11:35:48;19.90;51.20
3548;DHT22;1788;49.400;11.092;2023-08-31T11:38:16;19.90;51.30
3548;DHT22;1788;49.400;11.092;2023-08-31T11:40:42;19.90;51.30
3548;DHT22;1788;49.400;11.092;2023-08-31T11:43:09;20.00;51.60
3548;DHT22;1788;49.400;11.092;2023-08-31T11:45:36;20.00;51.60
3548;DHT22;1788;49.400;11.092;2023-08-31T11:48:03;20.10;51.60
3548;DHT22;1788;49.400;11.092;2023-08-31T11:50:29;20.30;51.50
3548;DHT22;1788;49.400;11.092;2023-08-31T11:52:56;20.40;51.00
3548;DHT22;1788;49.400;11.092;2023-08-31T11:55:22;20.40;50.70
3548;DHT22;1788;49.400;11.092;2023-08-31T12:00:16;20.20;50.30
3548;DHT22;1788;49.400;11.092;2023-08-31T12:02:42;20.00;50.30
3548;DHT22;1788;49.400;11.092;2023-08-31T12:05:10;19.80;51.00
3548;DHT22;1788;49.400;11.092;2023-08-31T12:10:03;19.80;50.40
3548;DHT22;1788;49.400;11.092;2023-08-31T12:12:30;19.80;50.40
3548;DHT22;1788;49.400;11.092;2023-08-31T12:14:56;19.80;50.50
3548;DHT22;1788;49.400;11.092;2023-08-31T12:17:24;19.80;50.60
3548;DHT22;1788;49.400;11.092;2023-08-31T12:19:50;19.80;50.60
3548;DHT22;1788;49.400;11.092;2023-08-31T12:22:17;19.90;51.20
3548;DHT22;1788;49.400;11.092;2023-08-31T12:24:43;19.90;50.70
3548;DHT22;1788;49.400;11.092;2023-08-31T12:27:10;20.10;50.60
3548;DHT22;1788;49.400;11.092;2023-08-31T12:29:37;20.20;50.60
3548;DHT22;1788;49.400;11.092;2023-08-31T12:32:03;20.20;50.60
3548;DHT22;1788;49.400;11.092;2023-08-31T12:34:30;20.30;50.50
3548;DHT22;1788;49.400;11.092;2023-08-31T12:36:56;20.30;50.50
3548;DHT22;1788;49.400;11.092;2023-08-31T12:39:24;20.20;50.30
3548;DHT22;1788;49.400;11.092;2023-08-31T12:41:50;20.20;50.20
3548;DHT22;1788;49.400;11.092;2023-08-31T12:44:18;20.20;50.10
3548;DHT22;1788;49.400;11.092;2023-08-31T12:46:44;20.20;50.10
3548;DHT22;1788;49.400;11.092;2023-08-31T12:49:12;20.10;50.10
3548;DHT22;1788;49.400;11.092;2023-08-31T12:51:38;20.10;50.10
3548;DHT22;1788;49.400;11.092;2023-08-31T12:54:05;20.20;50.30
3548;DHT22;1788;49.400;11.092;2023-08-31T12:56:32;20.20;50.30
3548;DHT22;1788;49.400;11.092;2023-08-31T12:58:58;20.30;50.40
3548;DHT22;1788;49.400;11.092;2023-08-31T13:01:26;20.30;50.00
3548;DHT22;1788;49.400;11.092;2023-08-31T13:03:52;20.30;50.00
3548;DHT22;1788;49.400;11.092;2023-08-31T13:06:20;20.30;50.20
3548;DHT22;1788;49.400;11.092;2023-08-31T13:08:47;20.20;50.10
3548;DHT22;1788;49.400;11.092;2023-08-31T13:11:13;20.30;50.20
3548;DHT22;1788;49.400;11.092;2023-08-31T13:13:40;20.50;50.20
3548;DHT22;1788;49.400;11.092;2023-08-31T13:16:07;20.70;50.10
3548;DHT22;1788;49.400;11.092;2023-08-31T13:18:37;20.90;50.10
3548;DHT22;1788;49.400;11.092;2023-08-31T13:21:04;21.00;49.80
3548;DHT22;1788;49.400;11.092;2023-08-31T13:23:31;21.20;49.60
3548;DHT22;1788;49.400;11.092;2023-08-31T13:25:57;21.80;49.30
3548;DHT22;1788;49.400;11.092;2023-08-31T13:28:24;22.50;48.50
3548;DHT22;1788;49.400;11.092;2023-08-31T13:33:18;23.10;47.50
3548;DHT22;1788;49.400;11.092;2023-08-31T13:35:45;23.00;47.50
3548;DHT22;1788;49.400;11.092;2023-08-31T13:38:12;23.20;47.40
3548;DHT22;1788;49.400;11.092;2023-08-31T13:40:39;22.70;47.30
3548;DHT22;1788;49.400;11.092;2023-08-31T13:43:06;22.70;47.20
3548;DHT22;1788;49.400;11.092;2023-08-31T13:45:33;22.30;47.40
3548;DHT22;1788;49.400;11.092;2023-08-31T13:48:00;22.20;47.20
3548;DHT22;1788;49.400;11.092;2023-08-31T13:50:27;22.10;47.20
3548;DHT22;1788;49.400;11.092;2023-08-31T13:52:53;22.20;47.10
3548;DHT22;1788;49.400;11.092;2023-08-31T13:55:20;22.50;46.60
3548;DHT22;1788;49.400;11.092;2023-08-31T13:57:48;23.10;45.50
3548;DHT22;1788;49.400;11.092;2023-08-31T14:00:14;23.10;45.40
3548;DHT22;1788;49.400;11.092;2023-08-31T14:02:42;23.90;44.40
3548;DHT22;1788;49.400;11.092;2023-08-31T14:05:08;23.90;44.40
3548;DHT22;1788;49.400;11.092;2023-08-31T14:07:36;23.80;44.30
3548;DHT22;1788;49.400;11.092;2023-08-31T14:10:02;23.70;44.20
3548;DHT22;1788;49.400;11.092;2023-08-31T14:12:29;23.50;44.50
3548;DHT22;1788;49.400;11.092;2023-08-31T14:14:57;23.20;44.80
3548;DHT22;1788;49.400;11.092;2023-08-31T14:17:22;23.20;44.70
3548;DHT22;1788;49.400;11.092;2023-08-31T14:19:50;23.30;44.50
3548;DHT22;1788;49.400;11.092;2023-08-31T14:22:16;23.20;44.40
3548;DHT22;1788;49.400;11.092;2023-08-31T14:24:43;23.10;44.50
3548;DHT22;1788;49.400;11.092;2023-08-31T14:27:09;22.80;44.70
3548;DHT22;1788;49.400;11.092;2023-08-31T14:29:36;22.50;44.80
3548;DHT22;1788;49.400;11.092;2023-08-31T14:32:03;22.30;45.10
3548;DHT22;1788;49.400;11.092;2023-08-31T14:34:29;22.00;45.20
3548;DHT22;1788;49.400;11.092;2023-08-31T14:36:56;21.80;45.40
3548;DHT22;1788;49.400;11.092;2023-08-31T14:39:23;21.60;45.70
3548;DHT22;1788;49.400;11.092;2023-08-31T14:41:50;21.30;45.80
3548;DHT22;1788;49.400;11.092;2023-08-31T14:44:16;21.30;45.80
3548;DHT22;1788;49.400;11.092;2023-08-31T14:46:44;21.00;46.50
3548;DHT22;1788;49.400;11.092;2023-08-31T14:49:10;21.00;45.90
3548;DHT22;1788;49.400;11.092;2023-08-31T14:51:38;20.80;46.50
3548;DHT22;1788;49.400;11.092;2023-08-31T14:54:04;20.80;45.90
3548;DHT22;1788;49.400;11.092;2023-08-31T14:56:31;20.70;46.10
3548;DHT22;1788;49.400;11.092;2023-08-31T14:58:58;20.70;46.20
3548;DHT22;1788;49.400;11.092;2023-08-31T15:01:24;20.60;46.20
3548;DHT22;1788;49.400;11.092;2023-08-31T15:03:52;20.90;46.20
3548;DHT22;1788;49.400;11.092;2023-08-31T15:06:20;20.90;46.20
3548;DHT22;1788;49.400;11.092;2023-08-31T15:08:46;21.30;46.20
3548;DHT22;1788;49.400;11.092;2023-08-31T15:11:13;21.60;45.90
3548;DHT22;1788;49.400;11.092;2023-08-31T15:13:40;21.90;45.70
3548;DHT22;1788;49.400;11.092;2023-08-31T15:16:07;22.40;45.60
3548;DHT22;1788;49.400;11.092;2023-08-31T15:18:34;22.40;45.60
3548;DHT22;1788;49.400;11.092;2023-08-31T15:21:01;23.00;45.40
3548;DHT22;1788;49.400;11.092;2023-08-31T15:23:28;23.00;45.40
3548;DHT22;1788;49.400;11.092;2023-08-31T15:28:22;23.20;45.10
3548;DHT22;1788;49.400;11.092;2023-08-31T15:30:48;23.30;45.20
3548;DHT22;1788;49.400;11.092;2023-08-31T15:33:15;23.20;45.10
3548;DHT22;1788;49.400;11.092;2023-08-31T15:35:41;23.10;45.30
3548;DHT22;1788;49.400;11.092;2023-08-31T15:38:09;22.70;45.60
3548;DHT22;1788;49.400;11.092;2023-08-31T15:40:35;22.70;45.60
3548;DHT22;1788;49.400;11.092;2023-08-31T15:43:03;22.50;46.40
3548;DHT22;1788;49.400;11.092;2023-08-31T15:45:29;22.50;45.70
3548;DHT22;1788;49.400;11.092;2023-08-31T15:47:56;22.40;45.80
3548;DHT22;1788;49.400;11.092;2023-08-31T15:50:23;22.30;45.80
3548;DHT22;1788;49.400;11.092;2023-08-31T15:52:49;22.30;45.80
3548;DHT22;1788;49.400;11.092;2023-08-31T15:55:17;22.00;45.90
3548;DHT22;1788;49.400;11.092;2023-08-31T15:57:43;21.90;45.80
3548;DHT22;1788;49.400;11.092;2023-08-31T16:00:11;21.50;46.10
3548;DHT22;1788;49.400;11.092;2023-08-31T16:02:37;21.50;46.10
3548;DHT22;1788;49.400;11.092;2023-08-31T16:05:05;21.20;46.40
3548;DHT22;1788;49.400;11.092;2023-08-31T16:07:32;21.20;46.30
3548;DHT22;1788;49.400;11.092;2023-08-31T16:09:59;21.00;46.70
3548;DHT22;1788;49.400;11.092;2023-08-31T16:12:25;21.00;46.70
3548;DHT22;1788;49.400;11.092;2023-08-31T16:14:53;20.70;46.80
3548;DHT22;1788;49.400;11.092;2023-08-31T16:17:19;20.70;46.80
3548;DHT22;1788;49.400;11.092;2023-08-31T16:19:46;20.60;47.00
3548;DHT22;1788;49.400;11.092;2023-08-31T16:22:13;20.60;47.10
3548;DHT22;1788;49.400;11.092;2023-08-31T16:24:39;20.50;47.20